Genesis II — EILJ9 — position and weather

sailwx.info

Track history (hours):
 
Tides and Currents Weather Stations Pressure Air Temp Water Temp Dewpoint Dewpoint Depression Visibility Wind Speed Wind Dir Waves Ship Positions

Genesis II

Last reported at 2017-Oct-18 03:28 UTC. Time now 2017-Oct-18 09:26 UTC.
Position N 55°47' W 008°04'.

Length 53 m; draft 6.6 m.

Type: Fishing. MMSI: 250002424.

Date/timePositionNaut miles runAvg speedWind from/ knotsBaromVisibWave heightAir tempDewpointWater temp
2017-Oct-18 03:28N 55°47' W 008°04'713.2
2017-Oct-18 02:58N 55°41' W 008°09'613.0
2017-Oct-18 02:30N 55°35' W 008°13'713.1
2017-Oct-18 01:56N 55°28' W 008°17'1313.0
2017-Oct-18 00:58N 55°16' W 008°25'813.0
2017-Oct-18 00:21N 55°09' W 008°30'3412.1
2017-Oct-17 21:31N 54°37' W 008°51'3 3.4
2017-Oct-17 20:37N 54°36' W 008°46'212.4
2017-Oct-17 20:29N 54°35' W 008°43'612.9
2017-Oct-17 20:00N 54°35' W 008°32'4 7.9
2017-Oct-17 19:27N 54°38' W 008°26'0 0.0
2017-Oct-17 18:59N 54°38' W 008°26'3 5.4
2017-Oct-17 18:30N 54°36' W 008°29'612.5
2017-Oct-17 17:59N 54°35' W 008°40'1 2.4
2017-Oct-17 17:24N 54°35' W 008°42'512.4
2017-Oct-17 17:00N 54°35' W 008°33'  
Track history (hours):
 
Tides and Currents Weather Stations Pressure Air Temp Water Temp Dewpoint Dewpoint Depression Visibility Wind Speed Wind Dir Waves Ship Positions

Genesis II

Last reported at 2017-Oct-18 03:28 UTC. Time now 2017-Oct-18 09:26 UTC.
Position N 55°47' W 008°04'.

Length 53 m; draft 6.6 m.

Type: Fishing. MMSI: 250002424.

Date/timePositionNaut miles runAvg speedWind from/ knotsBaromVisibWave heightAir tempDewpointWater temp
2017-Oct-18 03:28N 55°47' W 008°04'713.2
2017-Oct-18 02:58N 55°41' W 008°09'613.0
2017-Oct-18 02:30N 55°35' W 008°13'713.1
2017-Oct-18 01:56N 55°28' W 008°17'1313.0
2017-Oct-18 00:58N 55°16' W 008°25'813.0
2017-Oct-18 00:21N 55°09' W 008°30'3412.1
2017-Oct-17 21:31N 54°37' W 008°51'3 3.4
2017-Oct-17 20:37N 54°36' W 008°46'212.4
2017-Oct-17 20:29N 54°35' W 008°43'612.9
2017-Oct-17 20:00N 54°35' W 008°32'4 7.9
2017-Oct-17 19:27N 54°38' W 008°26'0 0.0
2017-Oct-17 18:59N 54°38' W 008°26'3 5.4
2017-Oct-17 18:30N 54°36' W 008°29'612.5
2017-Oct-17 17:59N 54°35' W 008°40'1 2.4
2017-Oct-17 17:24N 54°35' W 008°42'512.4
2017-Oct-17 17:00N 54°35' W 008°33'  

Dump ship's entire track history